createdAt,value
2022-09-17T00:00:40.201Z,27.83
2022-09-17T00:03:09.846Z,24.77
2022-09-17T00:05:39.257Z,29.87
2022-09-17T00:08:08.238Z,45.13
2022-09-17T00:10:39.681Z,37.97
2022-09-17T00:13:07.790Z,24.57
2022-09-17T00:15:42.343Z,28.97
2022-09-17T00:18:10.309Z,22.87
2022-09-17T00:20:41.116Z,24.47
2022-09-17T00:23:09.622Z,24.53
2022-09-17T00:25:38.762Z,24.20
2022-09-17T00:28:06.461Z,36.30
2022-09-17T00:30:34.344Z,25.63
2022-09-17T00:33:03.442Z,30.90
2022-09-17T00:35:31.165Z,26.33
2022-09-17T00:37:58.899Z,32.90
2022-09-17T00:40:26.741Z,26.97
2022-09-17T00:42:54.513Z,31.83
2022-09-17T00:45:22.904Z,36.13
2022-09-17T00:47:54.608Z,32.73
2022-09-17T00:50:27.648Z,29.20
2022-09-17T00:52:58.438Z,27.70
2022-09-17T00:55:32.466Z,21.00
2022-09-17T00:58:02.376Z,22.13
2022-09-17T01:00:31.739Z,21.07
2022-09-17T01:02:59.992Z,25.93
2022-09-17T01:05:34.784Z,23.97
2022-09-17T01:08:08.213Z,25.40
2022-09-17T01:10:55.727Z,32.03
2022-09-17T01:13:34.114Z,29.80
2022-09-17T01:16:06.951Z,33.03
2022-09-17T01:18:44.612Z,32.53
2022-09-17T01:21:42.936Z,25.00
2022-09-17T01:24:40.605Z,30.37
2022-09-17T01:27:29.899Z,20.80
2022-09-17T01:30:16.483Z,28.30
2022-09-17T01:32:47.708Z,26.30
2022-09-17T01:35:20.008Z,16.73
2022-09-17T01:37:57.504Z,28.33
2022-09-17T01:40:27.910Z,27.77
2022-09-17T01:42:59.637Z,28.13
2022-09-17T01:45:31.562Z,27.03
2022-09-17T01:48:05.144Z,25.20
2022-09-17T01:50:38.392Z,20.33
2022-09-17T01:53:06.914Z,36.60
2022-09-17T01:55:37.881Z,23.00
2022-09-17T01:58:10.887Z,23.40
2022-09-17T02:00:42.380Z,21.80
2022-09-17T02:03:16.069Z,30.27
2022-09-17T02:05:46.759Z,20.40
2022-09-17T02:08:17.125Z,25.87
2022-09-17T02:10:46.382Z,23.20
2022-09-17T02:13:18.266Z,24.80
2022-09-17T02:15:50.797Z,14.50
2022-09-17T02:18:26.232Z,25.80
2022-09-17T02:20:57.919Z,31.07
2022-09-17T02:23:28.671Z,27.10
2022-09-17T02:25:59.793Z,17.50
2022-09-17T02:28:31.790Z,26.93
2022-09-17T02:31:01.905Z,17.73
2022-09-17T02:33:31.679Z,28.67
2022-09-17T02:35:59.502Z,22.67
2022-09-17T02:38:28.218Z,27.13
2022-09-17T02:41:03.302Z,19.47
2022-09-17T02:43:38.068Z,31.00
2022-09-17T02:46:20.379Z,26.30
2022-09-17T02:49:09.083Z,18.97
2022-09-17T02:51:46.385Z,21.67
2022-09-17T02:54:19.249Z,23.87
2022-09-17T02:56:52.092Z,26.33
2022-09-17T02:59:24.964Z,20.87
2022-09-17T03:01:57.893Z,20.50
2022-09-17T03:04:27.828Z,30.07
2022-09-17T03:06:56.602Z,27.50
2022-09-17T03:09:24.253Z,23.03
2022-09-17T03:11:51.879Z,19.73
2022-09-17T03:14:20.774Z,24.93
2022-09-17T03:16:48.893Z,20.47
2022-09-17T03:19:16.446Z,19.90
2022-09-17T03:21:45.607Z,20.33
2022-09-17T03:24:13.493Z,22.70
2022-09-17T03:26:41.283Z,16.03
2022-09-17T03:29:09.121Z,29.63
2022-09-17T03:31:36.784Z,19.90
2022-09-17T03:34:04.728Z,19.07
2022-09-17T03:36:32.297Z,21.27
2022-09-17T03:39:01.435Z,27.93
2022-09-17T03:41:29.065Z,23.10
2022-09-17T03:43:56.709Z,11.83
2022-09-17T03:46:24.390Z,19.40
2022-09-17T03:48:52.008Z,18.30
2022-09-17T03:51:19.564Z,18.63
2022-09-17T03:53:47.119Z,21.80
2022-09-17T03:56:16.220Z,18.80
2022-09-17T03:58:43.970Z,18.00
2022-09-17T04:01:11.948Z,26.33
2022-09-17T04:03:40.145Z,17.20
2022-09-17T04:06:07.907Z,32.33
2022-09-17T04:08:36.642Z,14.27
2022-09-17T04:11:04.764Z,17.53
2022-09-17T04:13:33.973Z,19.43
2022-09-17T04:16:01.663Z,17.50
2022-09-17T04:18:29.284Z,15.50
2022-09-17T04:20:56.988Z,15.33
2022-09-17T04:23:24.542Z,24.13
2022-09-17T04:25:52.086Z,17.63
2022-09-17T04:28:19.658Z,12.40
2022-09-17T04:30:50.112Z,13.20
2022-09-17T04:33:17.709Z,17.90
2022-09-17T04:35:45.270Z,13.63
2022-09-17T04:38:13.786Z,21.57
2022-09-17T04:40:42.521Z,11.87
2022-09-17T04:43:10.623Z,9.67
2022-09-17T04:45:38.176Z,22.00
2022-09-17T04:48:07.104Z,22.63
2022-09-17T04:50:34.956Z,16.50
2022-09-17T04:53:02.543Z,13.63
2022-09-17T04:55:31.162Z,23.83
2022-09-17T04:57:58.919Z,18.97
2022-09-17T05:00:26.794Z,14.57
2022-09-17T05:02:56.120Z,16.07
2022-09-17T05:05:25.121Z,22.50
2022-09-17T05:07:52.712Z,16.70
2022-09-17T05:10:21.235Z,19.63
2022-09-17T05:12:49.854Z,19.43
2022-09-17T05:15:17.826Z,20.33
2022-09-17T05:17:45.580Z,24.00
2022-09-17T05:20:14.041Z,16.53
2022-09-17T05:22:44.193Z,12.40
2022-09-17T05:25:12.471Z,13.63
2022-09-17T05:27:40.365Z,19.17
2022-09-17T05:30:09.475Z,18.77
2022-09-17T05:32:37.356Z,11.43
2022-09-17T05:35:06.022Z,19.90
2022-09-17T05:37:33.885Z,21.90
2022-09-17T05:40:03.242Z,17.13
2022-09-17T05:42:30.915Z,17.23
2022-09-17T05:44:58.336Z,15.20
2022-09-17T05:47:26.198Z,19.27
2022-09-17T05:49:53.665Z,20.07
2022-09-17T05:52:21.418Z,24.33
2022-09-17T05:54:49.136Z,17.00
2022-09-17T05:57:17.978Z,24.60
2022-09-17T05:59:45.423Z,21.10
2022-09-17T06:02:14.311Z,17.10
2022-09-17T06:04:41.875Z,23.27
2022-09-17T06:07:09.507Z,10.80
2022-09-17T06:09:38.061Z,15.90
2022-09-17T06:12:06.669Z,11.40
2022-09-17T06:14:35.489Z,15.50
2022-09-17T06:17:03.045Z,18.10
2022-09-17T06:19:30.543Z,13.73
2022-09-17T06:21:58.187Z,10.10
2022-09-17T06:24:25.883Z,20.80
2022-09-17T06:26:53.439Z,15.80
2022-09-17T06:29:21.367Z,16.53
2022-09-17T06:31:50.548Z,16.53
2022-09-17T06:34:18.730Z,14.63
2022-09-17T06:36:46.272Z,17.93
2022-09-17T06:39:14.139Z,16.70
2022-09-17T06:41:43.183Z,17.47
2022-09-17T06:44:10.788Z,20.13
2022-09-17T06:46:38.306Z,20.90
2022-09-17T06:49:07.149Z,17.40
2022-09-17T06:51:34.593Z,15.93
2022-09-17T06:54:02.233Z,13.10
2022-09-17T06:56:29.714Z,14.23
2022-09-17T06:58:57.260Z,14.50
2022-09-17T07:01:24.891Z,14.37
2022-09-17T07:03:52.433Z,14.90
2022-09-17T07:06:21.402Z,15.10
2022-09-17T07:08:48.853Z,14.17
2022-09-17T07:11:16.997Z,11.20
2022-09-17T07:13:44.512Z,13.97
2022-09-17T07:16:12.114Z,15.07
2022-09-17T07:18:40.085Z,10.70
2022-09-17T07:21:08.065Z,7.03
2022-09-17T07:23:38.327Z,11.07
2022-09-17T07:26:07.565Z,11.57
2022-09-17T07:28:35.418Z,11.67
2022-09-17T07:31:05.410Z,6.17
2022-09-17T07:33:35.532Z,5.57
2022-09-17T07:36:04.757Z,9.83
2022-09-17T07:38:33.852Z,6.97
2022-09-17T07:41:04.191Z,8.20
2022-09-17T07:43:33.122Z,10.40
2022-09-17T07:46:02.585Z,6.13
2022-09-17T07:48:30.703Z,9.13
2022-09-17T07:50:58.728Z,5.70
2022-09-17T07:53:27.010Z,8.83
2022-09-17T07:55:55.109Z,11.20
2022-09-17T07:58:24.655Z,4.70
2022-09-17T08:00:52.169Z,9.40
2022-09-17T08:03:19.618Z,5.63
2022-09-17T08:05:48.077Z,10.90
2022-09-17T08:08:20.364Z,4.90
2022-09-17T08:10:48.668Z,11.97
2022-09-17T08:13:16.111Z,8.30
2022-09-17T08:15:45.025Z,11.33
2022-09-17T08:18:12.563Z,10.30
2022-09-17T08:20:40.108Z,6.33
2022-09-17T08:23:07.566Z,12.90
2022-09-17T08:25:39.398Z,9.43
2022-09-17T08:28:07.157Z,8.60
2022-09-17T08:30:34.615Z,15.73
2022-09-17T08:33:03.473Z,11.90
2022-09-17T08:35:31.069Z,11.23
2022-09-17T08:37:58.778Z,8.80
2022-09-17T08:40:27.819Z,14.57
2022-09-17T08:42:57.678Z,14.70
2022-09-17T08:45:26.422Z,8.77
2022-09-17T08:47:57.229Z,10.90
2022-09-17T08:50:29.451Z,8.77
2022-09-17T08:53:06.846Z,9.77
2022-09-17T08:55:43.280Z,15.70
2022-09-17T08:58:28.130Z,8.17
2022-09-17T09:01:02.132Z,10.33
2022-09-17T09:03:38.045Z,12.37
2022-09-17T09:06:10.667Z,9.80
2022-09-17T09:08:41.323Z,5.23
2022-09-17T09:11:14.996Z,8.30
2022-09-17T09:13:45.472Z,8.23
2022-09-17T09:16:15.763Z,12.30
2022-09-17T09:18:43.254Z,7.00
2022-09-17T09:21:21.412Z,8.20
2022-09-17T09:23:54.138Z,6.17
2022-09-17T09:26:22.934Z,4.27
2022-09-17T09:29:01.462Z,5.73
2022-09-17T09:31:39.402Z,11.00
2022-09-17T09:34:06.993Z,4.40
2022-09-17T09:36:38.007Z,5.57
2022-09-17T09:39:10.830Z,1.87
2022-09-17T09:41:41.494Z,3.60
2022-09-17T09:44:11.778Z,4.03
2022-09-17T09:46:51.623Z,3.13
2022-09-17T09:49:27.189Z,4.23
2022-09-17T09:52:09.500Z,3.30
2022-09-17T09:54:46.195Z,6.03
2022-09-17T09:57:15.314Z,5.10
2022-09-17T09:59:42.816Z,3.67
2022-09-17T10:02:10.925Z,2.60
2022-09-17T10:04:38.853Z,6.47
2022-09-17T10:07:09.433Z,2.30
2022-09-17T10:09:39.218Z,3.57
2022-09-17T10:12:16.460Z,5.23
2022-09-17T10:14:45.499Z,9.23
2022-09-17T10:17:19.535Z,5.07
2022-09-17T10:19:48.268Z,4.07
2022-09-17T10:22:28.158Z,5.37
2022-09-17T10:24:56.877Z,5.90
2022-09-17T10:27:25.385Z,6.30
2022-09-17T10:29:58.655Z,7.27
2022-09-17T10:32:26.227Z,7.63
2022-09-17T10:35:00.266Z,6.00
2022-09-17T10:37:42.707Z,8.00
2022-09-17T10:40:33.650Z,5.00
2022-09-17T10:43:23.527Z,4.40
2022-09-17T10:46:00.114Z,5.50
2022-09-17T10:48:29.550Z,5.10
2022-09-17T10:50:57.700Z,6.10
2022-09-17T10:53:27.879Z,7.93
2022-09-17T10:56:01.339Z,4.90
2022-09-17T10:58:44.096Z,5.83
2022-09-17T11:01:24.689Z,5.40
2022-09-17T11:04:11.271Z,7.53
2022-09-17T11:07:14.268Z,9.63
2022-09-17T11:09:51.382Z,5.27
2022-09-17T11:12:27.082Z,7.17
2022-09-17T11:14:58.298Z,5.40
2022-09-17T11:17:44.726Z,6.03
2022-09-17T11:20:22.252Z,4.27
2022-09-17T11:23:09.538Z,7.83
2022-09-17T11:26:01.808Z,3.83
2022-09-17T11:28:53.731Z,7.20
2022-09-17T11:31:47.212Z,7.20
2022-09-17T11:38:19.543Z,7.03
2022-09-17T11:41:09.322Z,7.13
2022-09-17T11:43:41.421Z,4.30
2022-09-17T11:46:11.987Z,4.43
2022-09-17T11:48:46.602Z,4.50
2022-09-17T11:51:24.666Z,6.80
2022-09-17T11:53:54.931Z,5.10
2022-09-17T11:56:26.797Z,7.40
2022-09-17T11:58:58.911Z,5.20
2022-09-17T12:01:34.000Z,6.20
2022-09-17T12:04:30.794Z,5.80
2022-09-17T12:07:02.574Z,5.33
2022-09-17T12:09:33.968Z,12.40
2022-09-17T12:12:07.861Z,11.13
2022-09-17T12:14:44.473Z,6.40
2022-09-17T12:17:16.539Z,5.97
2022-09-17T12:19:47.562Z,5.80
2022-09-17T12:22:19.982Z,6.63
2022-09-17T12:24:51.515Z,7.70
2022-09-17T12:27:30.522Z,5.17
2022-09-17T12:30:19.347Z,9.77
2022-09-17T12:33:00.370Z,9.27
2022-09-17T12:36:05.301Z,7.50
2022-09-17T12:39:07.738Z,8.93
2022-09-17T12:41:43.962Z,10.17
2022-09-17T12:44:26.858Z,10.87
2022-09-17T12:47:06.548Z,10.73
2022-09-17T12:49:51.176Z,6.73
2022-09-17T12:52:31.126Z,8.70
2022-09-17T12:55:24.706Z,9.93
2022-09-17T12:57:57.695Z,12.00
2022-09-17T13:00:28.264Z,11.20
2022-09-17T13:03:03.797Z,9.00
2022-09-17T13:06:03.556Z,6.27
2022-09-17T13:09:07.124Z,10.53
2022-09-17T13:12:03.582Z,5.87
2022-09-17T13:14:47.084Z,11.37
2022-09-17T13:17:21.694Z,8.67
2022-09-17T13:19:59.449Z,7.10
2022-09-17T13:22:33.724Z,10.63
2022-09-17T13:25:05.602Z,7.27
2022-09-17T13:27:37.909Z,11.20
2022-09-17T13:30:07.065Z,12.60
2022-09-17T13:32:53.532Z,12.73
2022-09-17T13:35:49.968Z,8.03
2022-09-17T13:38:21.677Z,6.40
2022-09-17T13:40:51.985Z,12.10
2022-09-17T13:43:24.015Z,8.00
2022-09-17T13:46:11.274Z,5.23
2022-09-17T13:48:47.451Z,3.87
2022-09-17T13:51:57.581Z,10.90
2022-09-17T13:54:37.376Z,6.20
2022-09-17T13:57:11.996Z,6.80
2022-09-17T13:59:39.691Z,4.90
2022-09-17T14:02:36.507Z,6.93
2022-09-17T14:05:35.554Z,7.03
2022-09-17T14:08:30.453Z,7.53
2022-09-17T14:11:00.910Z,5.67
2022-09-17T14:13:44.311Z,4.57
2022-09-17T14:16:48.548Z,3.83
2022-09-17T14:19:37.762Z,3.17
2022-09-17T14:22:16.759Z,6.20
2022-09-17T14:24:50.594Z,2.43
2022-09-17T14:27:43.374Z,2.77
2022-09-17T14:30:18.877Z,3.20
2022-09-17T14:32:55.420Z,2.80
2022-09-17T14:35:30.949Z,4.17
2022-09-17T14:38:04.982Z,5.23
2022-09-17T14:40:35.213Z,3.80
2022-09-17T14:43:05.140Z,3.53
2022-09-17T14:45:40.756Z,3.00
2022-09-17T14:48:31.333Z,6.07
2022-09-17T14:51:28.307Z,6.83
2022-09-17T14:54:15.667Z,4.80
2022-09-17T14:56:48.674Z,3.20
2022-09-17T14:59:22.886Z,6.70
2022-09-17T15:01:50.671Z,6.23
2022-09-17T15:04:23.559Z,12.30
2022-09-17T15:06:54.555Z,7.23
2022-09-17T15:09:26.451Z,5.33
2022-09-17T15:11:55.586Z,7.10
2022-09-17T15:14:32.896Z,6.30
2022-09-17T15:17:01.826Z,5.50
2022-09-17T15:19:36.307Z,8.03
2022-09-17T15:22:14.895Z,5.87
2022-09-17T15:24:49.323Z,4.73
2022-09-17T15:27:22.244Z,13.73
2022-09-17T15:29:53.178Z,3.90
2022-09-17T15:32:21.003Z,5.47
2022-09-17T15:35:20.948Z,5.87
2022-09-17T15:40:44.696Z,4.60
2022-09-17T15:43:18.289Z,12.93
2022-09-17T15:45:46.477Z,3.23
2022-09-17T15:48:23.902Z,9.37
2022-09-17T15:50:52.959Z,11.70
2022-09-17T15:53:28.787Z,3.57
2022-09-17T15:56:02.795Z,7.90
2022-09-17T15:58:33.039Z,9.37
2022-09-17T16:01:39.358Z,3.17
2022-09-17T16:04:24.320Z,5.50
2022-09-17T16:06:59.465Z,5.43
2022-09-17T16:09:42.388Z,3.17
2022-09-17T16:12:19.896Z,5.47
2022-09-17T16:14:52.714Z,4.83
2022-09-17T16:17:36.539Z,5.37
2022-09-17T16:20:19.776Z,5.07
2022-09-17T16:22:48.199Z,6.50
2022-09-17T16:25:16.030Z,6.73
2022-09-17T16:27:49.280Z,5.50
2022-09-17T16:30:18.629Z,4.70
2022-09-17T16:32:46.504Z,5.83
2022-09-17T16:35:17.234Z,4.40
2022-09-17T16:37:45.395Z,4.00
2022-09-17T16:40:13.593Z,5.50
2022-09-17T16:42:41.367Z,5.93
2022-09-17T16:45:11.231Z,7.17
2022-09-17T16:47:39.948Z,6.77
2022-09-17T16:50:10.022Z,4.27
2022-09-17T16:52:37.757Z,7.33
2022-09-17T16:55:06.490Z,3.90
2022-09-17T16:57:34.611Z,4.07
2022-09-17T17:00:02.551Z,4.93
2022-09-17T17:02:31.622Z,6.90
2022-09-17T17:04:59.722Z,3.53
2022-09-17T17:07:27.383Z,4.20
2022-09-17T17:09:54.998Z,6.53
2022-09-17T17:12:22.948Z,7.57
2022-09-17T17:14:52.340Z,6.60
2022-09-17T17:17:20.904Z,5.57
2022-09-17T17:19:53.038Z,5.50
2022-09-17T17:22:20.650Z,4.00
2022-09-17T17:24:48.387Z,5.40
2022-09-17T17:27:16.013Z,3.73
2022-09-17T17:29:43.694Z,9.43
2022-09-17T17:32:11.387Z,4.33
2022-09-17T17:34:39.064Z,7.13
2022-09-17T17:37:08.049Z,6.47
2022-09-17T17:39:35.706Z,9.40
2022-09-17T17:42:03.471Z,4.73
2022-09-17T17:44:31.189Z,8.93
2022-09-17T17:46:59.000Z,4.83
2022-09-17T17:49:26.994Z,3.53
2022-09-17T17:51:54.743Z,6.17
2022-09-17T17:54:24.481Z,5.63
2022-09-17T17:56:52.072Z,3.50
2022-09-17T17:59:19.706Z,6.60
2022-09-17T18:01:47.744Z,5.23
2022-09-17T18:04:15.475Z,4.93
2022-09-17T18:06:43.889Z,6.10
2022-09-17T18:09:11.699Z,7.53
2022-09-17T18:11:40.639Z,6.57
2022-09-17T18:14:08.260Z,7.97
2022-09-17T18:16:35.948Z,6.60
2022-09-17T18:19:03.608Z,5.07
2022-09-17T18:21:31.361Z,5.37
2022-09-17T18:23:59.011Z,6.10
2022-09-17T18:26:28.195Z,5.67
2022-09-17T18:28:57.351Z,9.53
2022-09-17T18:31:26.504Z,8.57
2022-09-17T18:33:57.567Z,7.37
2022-09-17T18:36:25.649Z,12.17
2022-09-17T18:39:03.501Z,9.20
2022-09-17T18:41:40.711Z,6.60
2022-09-17T18:44:10.492Z,6.40
2022-09-17T18:46:38.583Z,6.10
2022-09-17T18:49:06.374Z,6.90
2022-09-17T18:51:34.037Z,5.73
2022-09-17T18:54:03.334Z,5.83
2022-09-17T18:56:32.598Z,6.87
2022-09-17T18:59:05.641Z,3.67
2022-09-17T19:01:37.009Z,8.40
2022-09-17T19:04:07.462Z,9.07
2022-09-17T19:06:35.597Z,8.00
2022-09-17T19:09:06.482Z,3.60
2022-09-17T19:11:36.273Z,7.33
2022-09-17T19:14:04.194Z,12.50
2022-09-17T19:16:32.068Z,7.90
2022-09-17T19:19:01.234Z,8.83
2022-09-17T19:21:29.545Z,10.20
2022-09-17T19:23:57.239Z,9.30
2022-09-17T19:26:26.163Z,13.03
2022-09-17T19:28:54.670Z,9.93
2022-09-17T19:31:22.949Z,15.93
2022-09-17T19:33:51.437Z,16.40
2022-09-17T19:36:21.234Z,18.17
2022-09-17T19:38:48.956Z,13.33
2022-09-17T19:41:19.061Z,10.27
2022-09-17T19:43:47.358Z,25.67
2022-09-17T19:46:16.953Z,30.73
2022-09-17T19:48:45.382Z,12.63
2022-09-17T19:51:14.128Z,11.23
2022-09-17T19:53:43.331Z,19.03
2022-09-17T19:56:12.820Z,14.87
2022-09-17T19:58:40.971Z,16.30
2022-09-17T20:01:08.753Z,23.03
2022-09-17T20:03:36.544Z,18.70
2022-09-17T20:06:05.962Z,13.80
2022-09-17T20:08:38.071Z,19.37
2022-09-17T20:11:11.719Z,13.93
2022-09-17T20:13:39.688Z,14.73
2022-09-17T20:16:09.494Z,17.43
2022-09-17T20:18:37.449Z,19.40
2022-09-17T20:21:09.261Z,15.57
2022-09-17T20:23:37.086Z,15.30
2022-09-17T20:26:05.606Z,18.10
2022-09-17T20:28:35.023Z,14.17
2022-09-17T20:31:04.170Z,15.63
2022-09-17T20:33:32.262Z,16.93
2022-09-17T20:36:00.640Z,17.13
2022-09-17T20:41:16.343Z,15.60
2022-09-17T20:43:46.867Z,19.23
2022-09-17T20:46:15.080Z,12.90
2022-09-17T20:48:42.897Z,14.20
2022-09-17T20:51:12.957Z,16.30
2022-09-17T20:53:42.030Z,16.43
2022-09-17T20:56:11.869Z,14.30
2022-09-17T20:58:45.335Z,12.47
2022-09-17T21:01:17.741Z,16.00
2022-09-17T21:03:47.655Z,17.40
2022-09-17T21:06:18.674Z,13.50
2022-09-17T21:08:46.996Z,14.27
2022-09-17T21:11:15.337Z,18.07
2022-09-17T21:13:43.508Z,13.87
2022-09-17T21:16:12.220Z,10.60
2022-09-17T21:18:41.682Z,9.73
2022-09-17T21:21:11.522Z,15.43
2022-09-17T21:23:39.956Z,14.13
2022-09-17T21:26:09.590Z,15.03
2022-09-17T21:28:37.479Z,13.37
2022-09-17T21:31:07.120Z,12.93
2022-09-17T21:33:34.758Z,10.40
2022-09-17T21:36:08.992Z,8.20
2022-09-17T21:38:37.183Z,9.23
2022-09-17T21:41:06.520Z,12.83
2022-09-17T21:43:35.640Z,9.90
2022-09-17T21:46:05.830Z,9.07
2022-09-17T21:48:35.495Z,11.07
2022-09-17T21:51:04.743Z,14.00
2022-09-17T21:53:34.222Z,12.30
2022-09-17T21:56:04.261Z,10.23
2022-09-17T21:58:31.961Z,11.10
2022-09-17T22:01:05.271Z,13.70
2022-09-17T22:03:32.953Z,7.20
2022-09-17T22:06:04.704Z,13.63
2022-09-17T22:08:34.471Z,11.10
2022-09-17T22:11:07.548Z,10.63
2022-09-17T22:13:35.419Z,13.10
2022-09-17T22:16:04.968Z,10.73
2022-09-17T22:18:33.418Z,7.27
2022-09-17T22:21:01.403Z,14.13
2022-09-17T22:23:28.952Z,11.10
2022-09-17T22:26:05.228Z,20.07
2022-09-17T22:28:33.119Z,6.60
2022-09-17T22:31:02.933Z,12.60
2022-09-17T22:33:33.084Z,12.23
2022-09-17T22:36:04.878Z,13.23
2022-09-17T22:38:32.704Z,16.57
2022-09-17T22:41:06.246Z,12.97
2022-09-17T22:43:34.020Z,13.20
2022-09-17T22:46:01.984Z,12.20
2022-09-17T22:48:29.772Z,9.40
2022-09-17T22:50:57.359Z,15.43
2022-09-17T22:53:24.914Z,15.90
2022-09-17T22:55:56.302Z,9.07
2022-09-17T22:58:25.523Z,10.50
2022-09-17T23:00:53.961Z,12.03
2022-09-17T23:03:21.920Z,9.60
2022-09-17T23:05:49.533Z,13.40
2022-09-17T23:08:17.336Z,13.40
2022-09-17T23:10:45.037Z,16.20
2022-09-17T23:13:12.609Z,16.67
2022-09-17T23:15:41.686Z,9.80
2022-09-17T23:18:09.250Z,9.67
2022-09-17T23:20:36.939Z,13.30
2022-09-17T23:23:04.766Z,12.63
2022-09-17T23:25:32.905Z,13.13
2022-09-17T23:28:01.560Z,10.47
2022-09-17T23:30:29.174Z,11.27
2022-09-17T23:32:58.680Z,9.43
2022-09-17T23:35:26.533Z,13.67
2022-09-17T23:37:54.088Z,13.10
2022-09-17T23:40:22.103Z,13.57
2022-09-17T23:42:49.828Z,10.97
2022-09-17T23:45:17.957Z,10.60
2022-09-17T23:47:45.479Z,12.20
2022-09-17T23:50:14.735Z,12.87
2022-09-17T23:52:42.290Z,9.03
2022-09-17T23:55:10.809Z,9.00
2022-09-17T23:57:39.004Z,20.33
